Time;durP1;ratioP1;P1;durP2;ratioP2;P2;SDS_P1;SDS_P2;PMS_P1;PMS_P2;Temp;Humidity;BMP_temperature;BMP_pressure;BME280_temperature;BME280_humidity;BME280_pressure;Samples;Min_cycle;Max_cycle;Signal;HPM_P1;HPM_P2
2023/03/24 10:04:23;;;;;;;9.05;4.57;;;;;;;;;;4432459;32;20455;-67
2023/03/24 10:06:56;;;;;;;5.15;2.87;;;;;;;;;;4423179;32;20416;-68
2023/03/24 10:09:27;;;;;;;5.40;2.90;;;;;;;;;;4406169;32;20721;-70
2023/03/24 10:12:12;;;;;;;9.77;3.35;;;;;;;;;;4372217;32;20051;-68
2023/03/24 10:15:05;;;;;;;9.65;3.12;;;;;;;;;;4370927;32;20149;-68
2023/03/24 10:17:49;;;;;;;7.05;3.92;;;;;;;;;;4350462;32;20604;-68
2023/03/24 10:20:35;;;;;;;12.95;6.85;;;;;;;;;;4352009;32;20122;-68
2023/03/24 10:23:21;;;;;;;3.22;2.67;;;;;;;;;;4358082;32;20402;-68
2023/03/24 10:25:50;;;;;;;4.37;3.28;;;;;;;;;;4349461;32;20048;-68
2023/03/24 10:28:20;;;;;;;15.35;7.40;;;;;;;;;;4347307;32;20091;-69
2023/03/24 10:30:47;;;;;;;21.87;8.35;;;;;;;;;;4355373;32;20171;-69
2023/03/24 10:33:13;;;;;;;13.52;5.40;;;;;;;;;;4360304;32;20522;-69
2023/03/24 10:35:42;;;;;;;12.00;3.92;;;;;;;;;;4360636;32;20086;-69
2023/03/24 10:38:26;;;;;;;6.25;3.65;;;;;;;;;;4342271;33;20065;-71
2023/03/24 10:40:53;;;;;;;7.70;3.40;;;;;;;;;;4347716;33;20061;-69
2023/03/24 10:43:20;;;;;;;13.00;3.20;;;;;;;;;;4346852;33;20433;-69
2023/03/24 10:45:48;;;;;;;12.57;2.62;;;;;;;;;;4347031;32;20061;-69
2023/03/24 10:48:32;;;;;;;8.02;3.80;;;;;;;;;;4345011;33;20055;-68
2023/03/24 10:50:59;;;;;;;10.20;2.72;;;;;;;;;;4329146;33;20036;-69
2023/03/24 10:53:26;;;;;;;11.15;3.45;;;;;;;;;;4331574;33;20078;-68
2023/03/24 10:55:52;;;;;;;6.93;3.33;;;;;;;;;;4314811;33;20080;-70
2023/03/24 10:58:28;;;;;;;7.78;3.40;;;;;;;;;;4314768;33;20094;-69
2023/03/24 11:00:56;;;;;;;11.77;4.90;;;;;;;;;;4288108;33;20061;-68
2023/03/24 11:03:30;;;;;;;4.25;3.22;;;;;;;;;;4288815;33;20085;-68
2023/03/24 11:05:58;;;;;;;3.62;3.12;;;;;;;;;;4283558;33;20065;-68
2023/03/24 11:08:27;;;;;;;11.02;3.47;;;;;;;;;;4300859;33;20215;-68
2023/03/24 11:10:54;;;;;;;15.82;3.58;;;;;;;;;;4297008;33;20041;-68
2023/03/24 11:13:31;;;;;;;3.10;2.28;;;;;;;;;;4275648;33;20083;-67
2023/03/24 11:16:06;;;;;;;7.97;3.80;;;;;;;;;;4267276;33;20072;-68
2023/03/24 11:18:33;;;;;;;10.02;4.55;;;;;;;;;;4266902;33;20079;-68
2023/03/24 11:21:02;;;;;;;5.07;3.22;;;;;;;;;;4236091;33;20031;-69
2023/03/24 11:23:30;;;;;;;5.35;3.22;;;;;;;;;;4236120;33;20064;-68
2023/03/24 11:26:06;;;;;;;13.35;3.12;;;;;;;;;;4246296;33;20064;-68
2023/03/24 11:28:35;;;;;;;11.10;2.97;;;;;;;;;;4250658;33;20097;-68
2023/03/24 11:31:06;;;;;;;8.15;3.47;;;;;;;;;;4249790;33;20050;-67
2023/03/24 11:33:34;;;;;;;3.42;2.70;;;;;;;;;;4252874;33;20086;-68
2023/03/24 11:36:20;;;;;;;6.07;3.15;;;;;;;;;;4259535;33;20081;-69
2023/03/24 11:38:57;;;;;;;9.98;2.72;;;;;;;;;;4266675;33;20060;-69
2023/03/24 11:41:23;;;;;;;3.08;2.28;;;;;;;;;;4275326;33;20106;-68
2023/03/24 11:43:49;;;;;;;4.93;2.80;;;;;;;;;;4279877;33;20092;-68
2023/03/24 11:46:19;;;;;;;2.95;2.05;;;;;;;;;;4289357;33;20404;-70
2023/03/24 11:48:56;;;;;;;6.82;2.50;;;;;;;;;;4287921;33;20054;-69
2023/03/24 11:51:34;;;;;;;10.00;2.47;;;;;;;;;;4281381;33;20503;-69
2023/03/24 11:54:02;;;;;;;6.78;2.12;;;;;;;;;;4260108;33;20047;-68
2023/03/24 11:56:31;;;;;;;13.90;2.20;;;;;;;;;;4262977;33;20054;-69
2023/03/24 11:59:03;;;;;;;3.50;2.35;;;;;;;;;;4267874;33;20033;-71
2023/03/24 12:01:31;;;;;;;7.30;2.75;;;;;;;;;;4431949;28;20073;-70
2023/03/24 12:04:07;;;;;;;4.80;2.10;;;;;;;;;;4314249;33;20510;-68
2023/03/24 12:06:53;;;;;;;8.63;2.28;;;;;;;;;;4307575;33;20389;-69
2023/03/24 12:09:33;;;;;;;7.05;2.20;;;;;;;;;;4333245;33;20384;-68
2023/03/24 12:12:11;;;;;;;5.10;2.30;;;;;;;;;;4327004;33;20142;-67
2023/03/24 12:14:38;;;;;;;2.92;2.53;;;;;;;;;;4320646;33;20339;-69
2023/03/24 12:17:14;;;;;;;4.40;1.95;;;;;;;;;;4320796;33;20185;-68
2023/03/24 12:19:43;;;;;;;4.45;2.15;;;;;;;;;;4292212;33;20108;-69
2023/03/24 12:22:27;;;;;;;3.87;1.95;;;;;;;;;;4286644;33;20462;-72
2023/03/24 12:25:09;;;;;;;5.87;2.90;;;;;;;;;;4282341;33;20029;-70
2023/03/24 12:27:54;;;;;;;2.30;2.10;;;;;;;;;;4295414;33;20070;-69
2023/03/24 12:30:39;;;;;;;5.37;3.83;;;;;;;;;;4294380;33;20191;-69
2023/03/24 12:33:18;;;;;;;5.82;2.03;;;;;;;;;;4295741;33;20075;-72
2023/03/24 12:35:49;;;;;;;7.43;3.30;;;;;;;;;;4302047;33;20674;-69
2023/03/24 12:38:15;;;;;;;9.25;4.93;;;;;;;;;;4297259;33;20046;-69
2023/03/24 12:40:45;;;;;;;4.82;2.25;;;;;;;;;;4278362;33;20404;-69
2023/03/24 12:43:17;;;;;;;5.53;2.42;;;;;;;;;;4276655;33;20082;-72
2023/03/24 12:45:48;;;;;;;2.40;2.03;;;;;;;;;;4269525;33;20103;-69
2023/03/24 12:48:34;;;;;;;7.20;2.40;;;;;;;;;;4262524;33;20046;-70
2023/03/24 12:51:18;;;;;;;3.62;2.62;;;;;;;;;;4263815;33;20054;-72
2023/03/24 12:53:44;;;;;;;2.60;2.15;;;;;;;;;;4290412;33;20553;-69
2023/03/24 12:56:19;;;;;;;8.07;2.22;;;;;;;;;;4291530;33;20118;-70
2023/03/24 12:58:48;;;;;;;2.62;2.37;;;;;;;;;;4288888;33;20083;-71
2023/03/24 13:01:15;;;;;;;3.80;2.15;;;;;;;;;;4292111;33;20134;-70
2023/03/24 13:03:45;;;;;;;3.53;2.85;;;;;;;;;;4279423;33;20592;-69
2023/03/24 13:06:18;;;;;;;2.12;2.00;;;;;;;;;;4291493;33;20495;-68
2023/03/24 13:09:13;;;;;;;9.43;2.37;;;;;;;;;;4289141;33;20033;-73
2023/03/24 13:11:46;;;;;;;5.53;2.40;;;;;;;;;;4261470;33;20066;-71
2023/03/24 13:14:15;;;;;;;5.30;3.25;;;;;;;;;;4247670;33;20049;-73
2023/03/24 13:16:42;;;;;;;4.68;2.50;;;;;;;;;;4247125;33;20053;-68
2023/03/24 13:19:15;;;;;;;3.28;2.80;;;;;;;;;;4243583;33;20173;-68
2023/03/24 13:21:43;;;;;;;5.03;2.35;;;;;;;;;;4242472;33;20418;-68
2023/03/24 13:24:12;;;;;;;3.22;2.30;;;;;;;;;;4261163;33;20041;-78
2023/03/24 13:26:59;;;;;;;10.05;3.17;;;;;;;;;;4261730;33;20080;-76
2023/03/24 13:29:26;;;;;;;8.05;2.83;;;;;;;;;;4271391;33;20057;-69
2023/03/24 13:32:03;;;;;;;3.35;3.05;;;;;;;;;;4288976;33;20119;-69
2023/03/24 13:34:35;;;;;;;2.60;2.25;;;;;;;;;;4291144;33;20396;-71
2023/03/24 13:37:05;;;;;;;5.90;2.78;;;;;;;;;;4290158;33;20071;-69
2023/03/24 13:39:33;;;;;;;7.97;3.30;;;;;;;;;;4288854;33;20079;-73
2023/03/24 13:42:00;;;;;;;13.77;2.97;;;;;;;;;;4290056;33;20049;-70
2023/03/24 13:44:34;;;;;;;3.87;2.80;;;;;;;;;;4290524;33;20209;-69
2023/03/24 13:47:14;;;;;;;2.17;1.98;;;;;;;;;;4277060;33;20107;-69
2023/03/24 13:49:41;;;;;;;10.02;2.97;;;;;;;;;;4313541;33;20110;-69
2023/03/24 13:52:27;;;;;;;10.40;2.95;;;;;;;;;;4320325;33;20092;-69
2023/03/24 13:54:56;;;;;;;4.25;2.62;;;;;;;;;;4316441;33;20062;-68
2023/03/24 13:57:23;;;;;;;2.05;1.83;;;;;;;;;;4304108;33;20066;-69
2023/03/24 14:00:10;;;;;;;10.80;2.45;;;;;;;;;;4305474;33;20052;-69
2023/03/24 14:02:55;;;;;;;3.75;2.53;;;;;;;;;;4303769;33;20061;-70
2023/03/24 14:05:21;;;;;;;2.95;2.28;;;;;;;;;;4305926;33;20278;-68
2023/03/24 14:07:48;;;;;;;3.62;2.33;;;;;;;;;;4301020;33;20075;-71
2023/03/24 14:10:14;;;;;;;3.47;2.20;;;;;;;;;;4289935;33;20033;-69
2023/03/24 14:12:53;;;;;;;6.25;2.22;;;;;;;;;;4291097;33;20065;-68
2023/03/24 14:15:20;;;;;;;5.35;2.60;;;;;;;;;;4292265;33;20037;-69
2023/03/24 14:17:47;;;;;;;2.12;1.92;;;;;;;;;;4301553;33;20078;-69
2023/03/24 14:20:24;;;;;;;2.62;2.42;;;;;;;;;;4325268;33;20820;-69
2023/03/24 14:22:51;;;;;;;4.62;2.20;;;;;;;;;;4329125;33;20408;-72
2023/03/24 14:25:22;;;;;;;3.17;2.22;;;;;;;;;;4328911;33;20087;-70
2023/03/24 14:27:53;;;;;;;6.32;2.20;;;;;;;;;;4336990;33;20101;-69
2023/03/24 14:30:29;;;;;;;3.05;1.92;;;;;;;;;;4353684;33;20052;-68
2023/03/24 14:32:56;;;;;;;13.05;2.70;;;;;;;;;;4341144;33;20044;-68
2023/03/24 14:35:30;;;;;;;4.25;2.90;;;;;;;;;;4349720;33;20056;-69
2023/03/24 14:38:00;;;;;;;2.58;2.05;;;;;;;;;;4353411;33;20109;-68
2023/03/24 14:40:36;;;;;;;5.15;2.22;;;;;;;;;;4351287;33;20475;-72
2023/03/24 14:43:10;;;;;;;2.50;1.98;;;;;;;;;;4351739;33;20369;-68
2023/03/24 14:45:38;;;;;;;2.70;2.00;;;;;;;;;;4352740;33;20449;-68
2023/03/24 14:48:14;;;;;;;2.90;1.75;;;;;;;;;;4334568;33;20418;-71
2023/03/24 14:50:41;;;;;;;11.75;2.45;;;;;;;;;;4323824;33;20392;-69
2023/03/24 14:53:16;;;;;;;2.92;1.87;;;;;;;;;;4324309;33;20079;-69
2023/03/24 14:55:42;;;;;;;5.30;1.62;;;;;;;;;;4323392;33;20717;-69
2023/03/24 14:58:19;;;;;;;5.43;2.08;;;;;;;;;;4313545;33;20060;-69
2023/03/24 15:00:56;;;;;;;2.78;2.10;;;;;;;;;;4317773;33;20048;-70
2023/03/24 15:03:25;;;;;;;5.78;2.17;;;;;;;;;;4321237;33;20064;-69
2023/03/24 15:05:51;;;;;;;2.17;2.00;;;;;;;;;;4321193;33;20095;-72
2023/03/24 15:08:22;;;;;;;7.53;2.20;;;;;;;;;;4321279;33;20092;-69
2023/03/24 15:10:49;;;;;;;3.05;1.92;;;;;;;;;;4321669;33;20423;-68
2023/03/24 15:13:39;;;;;;;2.17;2.08;;;;;;;;;;4322695;33;20060;-70
2023/03/24 15:16:25;;;;;;;4.70;1.98;;;;;;;;;;4312327;33;20067;-69
2023/03/24 15:18:54;;;;;;;2.10;1.90;;;;;;;;;;4308571;33;20071;-69
2023/03/24 15:21:22;;;;;;;2.40;1.80;;;;;;;;;;4307331;33;20057;-72
2023/03/24 15:23:49;;;;;;;2.10;1.90;;;;;;;;;;4307520;33;20100;-69
2023/03/24 15:26:17;;;;;;;3.12;2.10;;;;;;;;;;4318641;33;20078;-70
2023/03/24 15:28:44;;;;;;;3.95;2.28;;;;;;;;;;4307780;33;20059;-70
2023/03/24 15:31:11;;;;;;;3.28;1.90;;;;;;;;;;4307223;33;20036;-71
2023/03/24 15:33:38;;;;;;;2.87;2.62;;;;;;;;;;4308167;33;20126;-70
2023/03/24 15:36:12;;;;;;;3.30;2.37;;;;;;;;;;4309134;33;20066;-69
2023/03/24 15:38:44;;;;;;;5.32;3.25;;;;;;;;;;4309158;33;20041;-69
2023/03/24 15:41:11;;;;;;;4.30;2.25;;;;;;;;;;4308783;33;20448;-70
2023/03/24 15:43:42;;;;;;;11.50;2.85;;;;;;;;;;4314486;33;20393;-70
2023/03/24 15:46:28;;;;;;;2.92;2.67;;;;;;;;;;4327135;33;20066;-70
2023/03/24 15:48:56;;;;;;;5.40;2.95;;;;;;;;;;4326318;33;20044;-72
2023/03/24 15:51:41;;;;;;;8.60;2.33;;;;;;;;;;4310153;33;20051;-69
2023/03/24 15:54:25;;;;;;;11.10;2.53;;;;;;;;;;4312428;33;20095;-70
2023/03/24 15:56:59;;;;;;;5.87;3.85;;;;;;;;;;4312454;33;20404;-71
2023/03/24 15:59:31;;;;;;;3.15;2.60;;;;;;;;;;4313571;33;20155;-68
2023/03/24 16:01:58;;;;;;;6.65;2.70;;;;;;;;;;4313090;33;20053;-70
2023/03/24 16:04:24;;;;;;;2.17;2.03;;;;;;;;;;4310866;33;20070;-72
2023/03/24 16:06:52;;;;;;;2.65;2.45;;;;;;;;;;4324841;33;20072;-68
2023/03/24 16:09:25;;;;;;;5.82;3.40;;;;;;;;;;4300475;33;20053;-70
2023/03/24 16:11:52;;;;;;;5.57;3.08;;;;;;;;;;4297596;33;20524;-68
2023/03/24 16:14:20;;;;;;;3.70;3.33;;;;;;;;;;4284484;33;20082;-70
2023/03/24 16:16:46;;;;;;;4.90;3.50;;;;;;;;;;4277850;33;20030;-68
2023/03/24 16:19:13;;;;;;;5.37;3.90;;;;;;;;;;4281642;33;20317;-69
2023/03/24 16:21:39;;;;;;;5.82;3.08;;;;;;;;;;4282601;33;20029;-70
2023/03/24 16:24:05;;;;;;;7.22;3.95;;;;;;;;;;4294455;33;20071;-69
2023/03/24 16:26:31;;;;;;;5.45;3.22;;;;;;;;;;4294178;33;20037;-68
2023/03/24 16:29:16;;;;;;;8.68;4.00;;;;;;;;;;4292445;33;20395;-69
2023/03/24 16:31:44;;;;;;;16.10;7.35;;;;;;;;;;4293913;33;20068;-69
2023/03/24 16:34:10;;;;;;;6.55;3.85;;;;;;;;;;4294319;33;20433;-69
2023/03/24 16:36:36;;;;;;;13.55;3.90;;;;;;;;;;4291789;33;20053;-73
2023/03/24 16:39:08;;;;;;;6.43;4.20;;;;;;;;;;4295023;33;20057;-69
2023/03/24 16:41:34;;;;;;;;;;;;;;;;;;4308425;33;20045;-70
2023/03/24 16:44:00;;;;;;;15.55;4.57;;;;;;;;;;4320322;33;19947;-69
2023/03/24 16:46:26;;;;;;;5.57;3.60;;;;;;;;;;4305384;33;20105;-73
2023/03/24 16:48:53;;;;;;;7.78;5.47;;;;;;;;;;4305229;33;20061;-69
2023/03/24 16:51:19;;;;;;;8.30;4.50;;;;;;;;;;4304552;33;20032;-68
2023/03/24 16:53:46;;;;;;;4.00;3.70;;;;;;;;;;4301707;33;20345;-69
2023/03/24 16:56:12;;;;;;;10.60;4.32;;;;;;;;;;4307007;33;20060;-68
2023/03/24 16:58:39;;;;;;;5.80;3.58;;;;;;;;;;4305237;33;20439;-68
2023/03/24 17:01:25;;;;;;;5.87;3.80;;;;;;;;;;4289397;33;20075;-69
2023/03/24 17:04:02;;;;;;;5.97;3.60;;;;;;;;;;4286510;33;20438;-68
2023/03/24 17:06:30;;;;;;;5.72;3.97;;;;;;;;;;4276151;33;20053;-68
2023/03/24 17:08:57;;;;;;;5.97;3.60;;;;;;;;;;4278656;33;20058;-69
2023/03/24 17:11:30;;;;;;;4.78;4.28;;;;;;;;;;4278910;33;20112;-70
2023/03/24 17:14:07;;;;;;;5.70;4.72;;;;;;;;;;4275336;33;20063;-69
2023/03/24 17:16:35;;;;;;;6.30;4.03;;;;;;;;;;4277685;33;20075;-69
2023/03/24 17:19:02;;;;;;;7.37;5.05;;;;;;;;;;4277982;33;20053;-69
2023/03/24 17:21:28;;;;;;;13.30;4.97;;;;;;;;;;4276612;33;20071;-71
2023/03/24 17:23:54;;;;;;;6.87;4.65;;;;;;;;;;4270499;33;20188;-68
2023/03/24 17:26:21;;;;;;;6.07;4.55;;;;;;;;;;4276696;33;20045;-69
2023/03/24 17:28:48;;;;;;;8.27;5.55;;;;;;;;;;4277878;33;20408;-68
2023/03/24 17:31:14;;;;;;;5.87;4.95;;;;;;;;;;4265053;33;20067;-69
2023/03/24 17:33:40;;;;;;;8.75;4.90;;;;;;;;;;4284487;33;20067;-71
2023/03/24 17:36:07;;;;;;;11.70;5.25;;;;;;;;;;4275142;33;20033;-69
2023/03/24 17:38:33;;;;;;;9.30;5.55;;;;;;;;;;4292381;33;20119;-70
2023/03/24 17:40:59;;;;;;;7.60;5.22;;;;;;;;;;4290956;33;20041;-71
2023/03/24 17:43:33;;;;;;;14.25;8.27;;;;;;;;;;4291168;33;20502;-69
2023/03/24 17:46:00;;;;;;;9.75;5.30;;;;;;;;;;4289618;33;20041;-71
2023/03/24 17:48:26;;;;;;;8.85;5.95;;;;;;;;;;4291590;33;20073;-68
2023/03/24 17:50:53;;;;;;;7.53;5.45;;;;;;;;;;4291006;33;20083;-69
2023/03/24 17:53:25;;;;;;;6.50;5.28;;;;;;;;;;4290644;33;20386;-68
2023/03/24 17:55:54;;;;;;;7.35;5.12;;;;;;;;;;4290838;33;20049;-69
2023/03/24 17:58:21;;;;;;;8.57;4.87;;;;;;;;;;4289169;33;20041;-69
2023/03/24 18:00:47;;;;;;;8.02;4.95;;;;;;;;;;4306024;33;20044;-69
2023/03/24 18:03:15;;;;;;;10.38;5.05;;;;;;;;;;4290483;33;20036;-69
2023/03/24 18:05:41;;;;;;;7.20;5.12;;;;;;;;;;4290640;33;20107;-69
2023/03/24 18:08:07;;;;;;;14.40;6.05;;;;;;;;;;4299431;33;20100;-69
2023/03/24 18:10:40;;;;;;;9.05;5.55;;;;;;;;;;4324106;33;20053;-68
2023/03/24 18:13:06;;;;;;;10.00;6.25;;;;;;;;;;4326420;33;20105;-69
2023/03/24 18:15:33;;;;;;;8.85;5.78;;;;;;;;;;4323021;33;20032;-70
2023/03/24 18:18:00;;;;;;;10.25;7.15;;;;;;;;;;4326876;33;20063;-69
2023/03/24 18:20:26;;;;;;;9.73;6.50;;;;;;;;;;4308898;33;20028;-69
2023/03/24 18:22:52;;;;;;;11.77;6.82;;;;;;;;;;4309606;33;20070;-68
2023/03/24 18:27:51;;;;;;;12.40;7.95;;;;;;;;;;4314184;33;20062;-68
2023/03/24 18:30:17;;;;;;;14.73;7.35;;;;;;;;;;4315117;33;20685;-69
2023/03/24 18:32:43;;;;;;;18.15;8.85;;;;;;;;;;4300586;33;20068;-69
2023/03/24 18:35:14;;;;;;;14.55;9.32;;;;;;;;;;4332433;33;20083;-69
2023/03/24 18:37:41;;;;;;;19.33;9.63;;;;;;;;;;4328406;33;20048;-70
2023/03/24 18:40:08;;;;;;;25.77;12.57;;;;;;;;;;4308649;33;20105;-71
2023/03/24 18:42:35;;;;;;;20.65;10.65;;;;;;;;;;4316971;33;20045;-68
2023/03/24 18:45:02;;;;;;;16.00;9.45;;;;;;;;;;4309580;33;20045;-69
2023/03/24 18:47:28;;;;;;;31.10;14.18;;;;;;;;;;4313393;33;20049;-69
2023/03/24 18:49:54;;;;;;;24.63;11.10;;;;;;;;;;4309319;33;20062;-69
2023/03/24 18:52:21;;;;;;;16.42;10.18;;;;;;;;;;4303190;33;20067;-69
2023/03/24 18:54:47;;;;;;;15.88;10.18;;;;;;;;;;4308237;33;20041;-68
2023/03/24 18:57:15;;;;;;;15.35;9.55;;;;;;;;;;4284729;33;20072;-70
2023/03/24 18:59:41;;;;;;;16.35;9.30;;;;;;;;;;4293109;33;20049;-69
2023/03/24 19:02:09;;;;;;;14.40;9.05;;;;;;;;;;4288389;33;20071;-69
2023/03/24 19:04:35;;;;;;;16.42;9.73;;;;;;;;;;4288252;33;20041;-68
2023/03/24 19:07:13;;;;;;;15.55;9.93;;;;;;;;;;4290951;33;20583;-69
2023/03/24 19:09:40;;;;;;;17.35;9.57;;;;;;;;;;4289228;33;20060;-69
2023/03/24 19:12:07;;;;;;;24.50;10.43;;;;;;;;;;4286079;33;20101;-71
2023/03/24 19:14:34;;;;;;;17.87;9.93;;;;;;;;;;4293183;33;20400;-69
2023/03/24 19:17:00;;;;;;;15.45;10.30;;;;;;;;;;4290205;33;20083;-69
2023/03/24 19:19:30;;;;;;;20.88;10.18;;;;;;;;;;4289438;33;20117;-69
2023/03/24 19:21:57;;;;;;;16.67;9.80;;;;;;;;;;4303379;33;20100;-70
2023/03/24 19:24:25;;;;;;;14.82;9.90;;;;;;;;;;4306838;33;20045;-68
2023/03/24 19:26:52;;;;;;;23.42;9.70;;;;;;;;;;4308491;33;20052;-68
2023/03/24 19:29:18;;;;;;;13.60;8.43;;;;;;;;;;4308467;33;20066;-68
2023/03/24 19:31:44;;;;;;;16.30;8.25;;;;;;;;;;4332659;33;20126;-68
2023/03/24 19:34:11;;;;;;;17.83;8.02;;;;;;;;;;4281305;33;20049;-69
2023/03/24 19:36:40;;;;;;;14.13;7.35;;;;;;;;;;4296015;33;20168;-69
2023/03/24 19:39:06;;;;;;;16.45;8.73;;;;;;;;;;4295287;33;20041;-73
2023/03/24 19:41:33;;;;;;;18.90;10.00;;;;;;;;;;4292415;33;20061;-72
2023/03/24 19:44:06;;;;;;;18.37;8.88;;;;;;;;;;4288192;33;20084;-70
2023/03/24 19:46:32;;;;;;;16.02;9.30;;;;;;;;;;4289949;33;20082;-71
2023/03/24 19:48:59;;;;;;;13.13;8.02;;;;;;;;;;4293362;33;20041;-73
2023/03/24 19:51:25;;;;;;;10.98;5.85;;;;;;;;;;4293071;33;20049;-70
2023/03/24 19:53:51;;;;;;;5.32;4.18;;;;;;;;;;4292914;33;20195;-70
2023/03/24 19:56:19;;;;;;;4.82;3.28;;;;;;;;;;4277594;33;20406;-71
2023/03/24 19:58:49;;;;;;;5.03;2.78;;;;;;;;;;4304516;33;20053;-72
2023/03/24 20:01:15;;;;;;;3.85;2.95;;;;;;;;;;4295634;33;20041;-71
2023/03/24 20:03:41;;;;;;;3.03;2.30;;;;;;;;;;4297688;33;20042;-70
2023/03/24 20:06:08;;;;;;;3.05;2.65;;;;;;;;;;4317288;33;20451;-70
2023/03/24 20:08:35;;;;;;;4.57;2.72;;;;;;;;;;4315906;33;20044;-71
2023/03/24 20:11:05;;;;;;;2.33;2.10;;;;;;;;;;4329020;33;20044;-69
2023/03/24 20:13:31;;;;;;;5.37;2.35;;;;;;;;;;4336626;33;20418;-70
2023/03/24 20:15:57;;;;;;;4.60;2.08;;;;;;;;;;4306222;33;20106;-70
2023/03/24 20:18:23;;;;;;;4.93;2.87;;;;;;;;;;4290762;33;20088;-70
2023/03/24 20:20:50;;;;;;;3.33;2.37;;;;;;;;;;4292882;33;20306;-69
2023/03/24 20:23:16;;;;;;;4.05;2.83;;;;;;;;;;4293305;33;20063;-69
2023/03/24 20:25:42;;;;;;;5.87;2.92;;;;;;;;;;4293571;33;20049;-69
2023/03/24 20:28:08;;;;;;;6.75;3.22;;;;;;;;;;4293156;33;20048;-70
2023/03/24 20:30:34;;;;;;;3.58;2.80;;;;;;;;;;4290646;33;20034;-70
2023/03/24 20:33:01;;;;;;;7.20;2.70;;;;;;;;;;4293990;33;20037;-70
2023/03/24 20:35:27;;;;;;;5.97;3.60;;;;;;;;;;4265251;33;20030;-72
2023/03/24 20:37:53;;;;;;;6.07;3.20;;;;;;;;;;4268381;33;20046;-70
2023/03/24 20:40:23;;;;;;;6.05;3.30;;;;;;;;;;4291111;33;20056;-71
2023/03/24 20:42:49;;;;;;;5.60;3.20;;;;;;;;;;4295171;33;20078;-70
2023/03/24 20:45:15;;;;;;;7.22;3.37;;;;;;;;;;4292332;33;20038;-70
2023/03/24 20:47:42;;;;;;;4.80;3.00;;;;;;;;;;4309244;33;20602;-70
2023/03/24 20:50:09;;;;;;;4.00;3.50;;;;;;;;;;4315386;33;20082;-69
2023/03/24 20:52:35;;;;;;;6.62;3.10;;;;;;;;;;4317087;33;20065;-70
2023/03/24 20:55:05;;;;;;;6.80;4.50;;;;;;;;;;4322891;33;20071;-70
2023/03/24 20:57:31;;;;;;;7.50;3.92;;;;;;;;;;4322656;33;20362;-70
2023/03/24 20:59:58;;;;;;;13.60;5.03;;;;;;;;;;4301815;33;20488;-70
2023/03/24 21:02:24;;;;;;;13.15;4.55;;;;;;;;;;4337583;32;20047;-70
2023/03/24 21:04:50;;;;;;;9.68;5.05;;;;;;;;;;4351464;32;20056;-70
2023/03/24 21:07:16;;;;;;;4.70;3.42;;;;;;;;;;4324003;33;20354;-68
2023/03/24 21:09:43;;;;;;;8.45;4.43;;;;;;;;;;4321717;33;20053;-69
2023/03/24 21:12:09;;;;;;;5.28;3.30;;;;;;;;;;4308374;33;20066;-70
2023/03/24 21:14:36;;;;;;;10.93;4.30;;;;;;;;;;4304397;33;20045;-71
2023/03/24 21:17:02;;;;;;;6.18;3.70;;;;;;;;;;4306587;33;20052;-70
2023/03/24 21:19:28;;;;;;;9.02;4.07;;;;;;;;;;4309773;33;20036;-69
2023/03/24 21:21:55;;;;;;;5.57;3.75;;;;;;;;;;4287725;33;20086;-71
2023/03/24 21:24:22;;;;;;;11.05;3.80;;;;;;;;;;4295006;33;20097;-70
2023/03/24 21:26:49;;;;;;;8.63;3.25;;;;;;;;;;4298002;33;20028;-72
2023/03/24 21:29:16;;;;;;;5.55;3.35;;;;;;;;;;4298916;33;20049;-69
2023/03/24 21:31:42;;;;;;;9.18;4.28;;;;;;;;;;4278313;33;20041;-68
2023/03/24 21:34:10;;;;;;;9.60;4.00;;;;;;;;;;4257423;33;20041;-72
2023/03/24 21:36:37;;;;;;;7.90;4.70;;;;;;;;;;4255612;33;20049;-69
2023/03/24 21:39:05;;;;;;;6.55;4.12;;;;;;;;;;4259515;33;20034;-70
2023/03/24 21:41:32;;;;;;;6.72;4.00;;;;;;;;;;4260303;33;20068;-71
2023/03/24 21:44:02;;;;;;;5.82;4.28;;;;;;;;;;4261410;33;20072;-69
2023/03/24 21:46:30;;;;;;;7.57;3.65;;;;;;;;;;4261289;33;20037;-69
2023/03/24 21:48:58;;;;;;;9.60;4.15;;;;;;;;;;4289985;33;20104;-70
2023/03/24 21:51:25;;;;;;;7.47;3.97;;;;;;;;;;4287138;33;20051;-69
2023/03/24 21:53:58;;;;;;;5.00;4.10;;;;;;;;;;4303274;33;20437;-72
2023/03/24 21:56:24;;;;;;;6.15;4.00;;;;;;;;;;4303512;33;20096;-70
2023/03/24 21:58:56;;;;;;;6.75;4.72;;;;;;;;;;4304447;33;20185;-70
2023/03/24 22:01:22;;;;;;;12.68;4.75;;;;;;;;;;4317192;33;20943;-71
2023/03/24 22:03:49;;;;;;;10.05;4.43;;;;;;;;;;4305431;33;20076;-70
2023/03/24 22:06:16;;;;;;;6.97;4.20;;;;;;;;;;4320364;33;20050;-70
2023/03/24 22:08:42;;;;;;;7.28;4.05;;;;;;;;;;4293835;33;20104;-71
2023/03/24 22:11:09;;;;;;;12.55;5.25;;;;;;;;;;4290536;33;20063;-73
2023/03/24 22:13:37;;;;;;;15.60;5.45;;;;;;;;;;4304969;33;20950;-70
2023/03/24 22:16:04;;;;;;;8.20;4.35;;;;;;;;;;4304867;33;20100;-71
2023/03/24 22:18:31;;;;;;;7.30;4.32;;;;;;;;;;4299982;33;20044;-70
2023/03/24 22:21:02;;;;;;;10.18;4.85;;;;;;;;;;4298288;33;20096;-70
2023/03/24 22:23:32;;;;;;;10.25;4.75;;;;;;;;;;4295101;33;20816;-70
2023/03/24 22:26:00;;;;;;;9.30;4.85;;;;;;;;;;4294465;33;20075;-70
2023/03/24 22:28:27;;;;;;;7.85;4.65;;;;;;;;;;4310357;33;20053;-70
2023/03/24 22:31:00;;;;;;;10.50;4.37;;;;;;;;;;4312234;33;20082;-71
2023/03/24 22:33:27;;;;;;;7.93;4.60;;;;;;;;;;4310652;33;20094;-70
2023/03/24 22:35:55;;;;;;;9.07;4.43;;;;;;;;;;4314579;33;20070;-69
2023/03/24 22:38:21;;;;;;;9.98;4.55;;;;;;;;;;4310806;33;20175;-71
2023/03/24 22:40:47;;;;;;;10.15;4.75;;;;;;;;;;4314170;33;20095;-71
2023/03/24 22:43:14;;;;;;;9.80;5.53;;;;;;;;;;4322239;33;20049;-72
2023/03/24 22:45:40;;;;;;;10.30;5.57;;;;;;;;;;4304831;33;20083;-71
2023/03/24 22:48:07;;;;;;;17.67;4.68;;;;;;;;;;4305573;33;20102;-70
2023/03/24 22:50:33;;;;;;;9.25;5.78;;;;;;;;;;4317355;33;20049;-71
2023/03/24 22:52:59;;;;;;;10.45;5.28;;;;;;;;;;4319113;33;20635;-70
2023/03/24 22:55:26;;;;;;;9.82;5.20;;;;;;;;;;4317867;33;20423;-71
2023/03/24 22:57:52;;;;;;;10.05;4.70;;;;;;;;;;4297161;33;20060;-70
2023/03/24 23:00:19;;;;;;;8.27;4.68;;;;;;;;;;4297877;33;20833;-69
2023/03/24 23:02:47;;;;;;;10.48;6.18;;;;;;;;;;4297763;33;20049;-70
2023/03/24 23:05:13;;;;;;;9.18;4.93;;;;;;;;;;4292262;33;20037;-70
2023/03/24 23:07:40;;;;;;;9.23;5.35;;;;;;;;;;4288582;33;20515;-70
2023/03/24 23:10:07;;;;;;;13.32;5.10;;;;;;;;;;4291666;33;20430;-70
2023/03/24 23:12:33;;;;;;;6.62;5.10;;;;;;;;;;4293917;33;20053;-70
2023/03/24 23:14:59;;;;;;;7.70;5.22;;;;;;;;;;4305488;33;20068;-69
2023/03/24 23:17:26;;;;;;;11.23;5.50;;;;;;;;;;4308327;33;20062;-73
2023/03/24 23:19:52;;;;;;;12.02;5.28;;;;;;;;;;4306840;33;20347;-72
2023/03/24 23:22:19;;;;;;;9.77;5.93;;;;;;;;;;4309213;33;20057;-69
2023/03/24 23:27:18;;;;;;;;;;;;;;;;;;4308657;33;20064;-70
2023/03/24 23:29:44;;;;;;;16.27;5.55;;;;;;;;;;4300266;33;20011;-70
2023/03/24 23:32:10;;;;;;;10.98;5.68;;;;;;;;;;4307325;33;20107;-70
2023/03/24 23:34:36;;;;;;;11.32;6.18;;;;;;;;;;4300935;33;20052;-70
2023/03/24 23:37:03;;;;;;;13.35;5.57;;;;;;;;;;4323071;33;20053;-70
2023/03/24 23:39:30;;;;;;;11.88;5.65;;;;;;;;;;4321191;33;20212;-73
2023/03/24 23:41:57;;;;;;;9.13;5.60;;;;;;;;;;4310190;33;20522;-70
2023/03/24 23:44:23;;;;;;;9.40;5.40;;;;;;;;;;4293269;33;20057;-70
2023/03/24 23:46:50;;;;;;;13.70;6.55;;;;;;;;;;4304652;33;20041;-70
2023/03/24 23:49:16;;;;;;;11.65;6.57;;;;;;;;;;4307920;33;20275;-71
2023/03/24 23:51:42;;;;;;;12.85;5.25;;;;;;;;;;4306545;33;20515;-71
2023/03/24 23:54:08;;;;;;;9.57;5.45;;;;;;;;;;4307310;33;20048;-70
2023/03/24 23:56:35;;;;;;;13.60;5.97;;;;;;;;;;4307534;33;20436;-70
2023/03/24 23:59:05;;;;;;;13.88;5.80;;;;;;;;;;4294427;33;20042;-70
